createdAt,value
2023-02-09T00:01:13.884Z,96841.69
2023-02-09T00:03:42.318Z,96847.22
2023-02-09T00:06:15.443Z,96829.94
2023-02-09T00:08:43.405Z,96825.91
2023-02-09T00:11:14.627Z,96835.31
2023-02-09T00:13:49.050Z,96841.91
2023-02-09T00:16:16.788Z,96835.81
2023-02-09T00:18:44.548Z,96849.06
2023-02-09T00:21:13.733Z,96847.59
2023-02-09T00:23:42.235Z,96857.00
2023-02-09T00:26:17.499Z,96853.63
2023-02-09T00:28:45.196Z,96859.69
2023-02-09T00:31:17.010Z,96863.31
2023-02-09T00:33:44.867Z,96854.34
2023-02-09T00:36:15.019Z,96850.50
2023-02-09T00:38:43.446Z,96855.25
2023-02-09T00:41:12.460Z,96840.31
2023-02-09T00:43:40.410Z,96835.72
2023-02-09T00:46:08.598Z,96845.13
2023-02-09T00:48:36.465Z,96837.63
2023-02-09T00:51:04.445Z,96829.16
2023-02-09T00:53:33.521Z,96830.25
2023-02-09T00:56:01.229Z,96829.72
2023-02-09T00:58:28.948Z,96834.38
2023-02-09T01:00:56.737Z,96829.06
2023-02-09T01:03:24.861Z,96830.22
2023-02-09T01:05:53.320Z,96835.50
2023-02-09T01:08:24.280Z,96837.03
2023-02-09T01:10:53.412Z,96824.44
2023-02-09T01:13:23.247Z,96818.88
2023-02-09T01:16:00.382Z,96821.50
2023-02-09T01:18:31.451Z,96817.72
2023-02-09T01:20:59.196Z,96830.22
2023-02-09T01:23:27.085Z,96826.28
2023-02-09T01:26:06.418Z,96821.63
2023-02-09T01:28:34.300Z,96825.16
2023-02-09T01:31:02.264Z,96821.06
2023-02-09T01:33:30.259Z,96812.91
2023-02-09T01:35:58.579Z,96816.06
2023-02-09T01:38:26.436Z,96822.53
2023-02-09T01:40:54.315Z,96820.47
2023-02-09T01:43:26.982Z,96820.88
2023-02-09T01:45:58.781Z,96825.91
2023-02-09T01:48:31.121Z,96823.41
2023-02-09T01:51:02.317Z,96820.28
2023-02-09T01:53:30.137Z,96813.84
2023-02-09T01:56:05.287Z,96817.78
2023-02-09T01:58:35.748Z,96816.84
2023-02-09T02:01:03.513Z,96806.22
2023-02-09T02:03:34.695Z,96812.16
2023-02-09T02:06:10.187Z,96806.91
2023-02-09T02:08:43.517Z,96803.47
2023-02-09T02:11:11.686Z,96803.00
2023-02-09T02:13:42.180Z,96806.25
2023-02-09T02:16:27.295Z,96805.94
2023-02-09T02:19:31.734Z,96798.44
2023-02-09T02:22:28.620Z,96790.22
2023-02-09T02:25:30.928Z,96791.72
2023-02-09T02:28:24.049Z,96809.38
2023-02-09T02:31:12.378Z,96797.22
2023-02-09T02:33:46.602Z,96814.03
2023-02-09T02:36:22.128Z,96812.59
2023-02-09T02:38:54.886Z,96812.88
2023-02-09T02:41:51.293Z,96807.16
2023-02-09T02:44:20.073Z,96797.41
2023-02-09T02:46:52.678Z,96806.09
2023-02-09T02:49:28.830Z,96802.28
2023-02-09T02:52:01.921Z,96798.47
2023-02-09T02:54:33.612Z,96800.63
2023-02-09T02:57:06.402Z,96797.28
2023-02-09T02:59:39.853Z,96792.38
2023-02-09T03:02:14.383Z,96777.66
2023-02-09T03:04:45.488Z,96799.00
2023-02-09T03:07:13.247Z,96793.63
2023-02-09T03:09:51.328Z,96806.28
2023-02-09T03:12:27.935Z,96801.56
2023-02-09T03:15:12.971Z,96802.06
2023-02-09T03:17:48.379Z,96801.22
2023-02-09T03:20:26.767Z,96793.34
2023-02-09T03:23:00.506Z,96801.47
2023-02-09T03:25:32.950Z,96790.25
2023-02-09T03:28:10.336Z,96789.81
2023-02-09T03:30:42.057Z,96796.28
2023-02-09T03:33:20.879Z,96797.09
2023-02-09T03:35:54.292Z,96789.25
2023-02-09T03:38:22.246Z,96796.28
2023-02-09T03:40:52.391Z,96792.81
2023-02-09T03:43:20.157Z,96799.28
2023-02-09T03:45:47.919Z,96794.41
2023-02-09T03:48:15.681Z,96790.94
2023-02-09T03:50:43.787Z,96791.66
2023-02-09T03:53:15.872Z,96794.41
2023-02-09T03:55:43.634Z,96795.25
2023-02-09T03:58:11.348Z,96804.53
2023-02-09T04:00:39.167Z,96795.00
2023-02-09T04:03:06.950Z,96799.28
2023-02-09T04:05:34.694Z,96807.16
2023-02-09T04:08:02.444Z,96803.22
2023-02-09T04:10:31.559Z,96809.53
2023-02-09T04:12:59.274Z,96808.72
2023-02-09T04:15:27.024Z,96816.69
2023-02-09T04:17:54.752Z,96806.31
2023-02-09T04:20:22.487Z,96812.53
2023-02-09T04:22:50.222Z,96810.03
2023-02-09T04:25:17.999Z,96803.38
2023-02-09T04:27:47.107Z,96813.16
2023-02-09T04:30:15.270Z,96812.19
2023-02-09T04:32:43.008Z,96812.19
2023-02-09T04:35:10.780Z,96806.97
2023-02-09T04:37:39.123Z,96802.56
2023-02-09T04:40:07.904Z,96807.91
2023-02-09T04:42:35.720Z,96803.50
2023-02-09T04:45:08.249Z,96816.50
2023-02-09T04:47:35.989Z,96806.84
2023-02-09T04:50:03.759Z,96811.25
2023-02-09T04:52:31.976Z,96800.03
2023-02-09T04:55:02.407Z,96807.44
2023-02-09T04:57:47.479Z,96809.81
2023-02-09T05:00:17.273Z,96808.50
2023-02-09T05:02:45.006Z,96813.63
2023-02-09T05:05:12.892Z,96813.03
2023-02-09T05:07:40.631Z,96817.44
2023-02-09T05:10:08.768Z,96818.78
2023-02-09T05:12:36.527Z,96819.97
2023-02-09T05:15:04.338Z,96825.09
2023-02-09T05:17:36.104Z,96829.00
2023-02-09T05:20:04.244Z,96825.56
2023-02-09T05:22:32.005Z,96832.56
2023-02-09T05:24:59.778Z,96825.44
2023-02-09T05:27:27.553Z,96832.22
2023-02-09T05:29:55.308Z,96824.25
2023-02-09T05:32:23.123Z,96837.94
2023-02-09T05:34:53.895Z,96841.53
2023-02-09T05:37:21.703Z,96841.53
2023-02-09T05:39:51.042Z,96837.22
2023-02-09T05:42:18.978Z,96841.16
2023-02-09T05:44:48.273Z,96840.69
2023-02-09T05:47:17.970Z,96841.28
2023-02-09T05:49:48.854Z,96834.38
2023-02-09T05:52:18.669Z,96836.72
2023-02-09T05:54:48.942Z,96835.09
2023-02-09T05:57:17.873Z,96836.63
2023-02-09T05:59:45.660Z,96836.50
2023-02-09T06:02:13.746Z,96837.81
2023-02-09T06:04:41.779Z,96836.38
2023-02-09T06:07:12.231Z,96843.88
2023-02-09T06:09:41.348Z,96841.38
2023-02-09T06:12:09.119Z,96842.34
2023-02-09T06:14:39.513Z,96843.16
2023-02-09T06:17:07.283Z,96845.91
2023-02-09T06:19:35.016Z,96839.94
2023-02-09T06:22:02.798Z,96845.06
2023-02-09T06:24:35.051Z,96846.75
2023-02-09T06:27:05.080Z,96845.44
2023-02-09T06:29:32.861Z,96843.78
2023-02-09T06:32:00.634Z,96854.72
2023-02-09T06:34:29.763Z,96851.84
2023-02-09T06:36:57.545Z,96857.34
2023-02-09T06:39:27.776Z,96859.97
2023-02-09T06:41:55.497Z,96868.06
2023-02-09T06:44:24.651Z,96872.69
2023-02-09T06:46:52.460Z,96867.91
2023-02-09T06:49:22.306Z,96872.78
2023-02-09T06:51:50.153Z,96877.19
2023-02-09T06:54:17.952Z,96881.38
2023-02-09T06:56:45.727Z,96882.69
2023-02-09T06:59:13.423Z,96873.47
2023-02-09T07:01:42.854Z,96874.41
2023-02-09T07:04:10.725Z,96870.13
2023-02-09T07:06:38.476Z,96876.66
2023-02-09T07:09:06.255Z,96877.47
2023-02-09T07:11:34.010Z,96879.63
2023-02-09T07:14:01.826Z,96875.22
2023-02-09T07:16:29.715Z,96875.03
2023-02-09T07:19:00.444Z,96887.19
2023-02-09T07:21:29.405Z,96890.09
2023-02-09T07:23:57.302Z,96887.41
2023-02-09T07:26:25.099Z,96891.09
2023-02-09T07:28:52.847Z,96889.34
2023-02-09T07:31:20.831Z,96888.47
2023-02-09T07:33:48.689Z,96885.63
2023-02-09T07:36:18.509Z,96876.84
2023-02-09T07:38:46.967Z,96881.75
2023-02-09T07:41:19.226Z,96884.28
2023-02-09T07:43:47.654Z,96893.34
2023-02-09T07:46:18.599Z,96888.69
2023-02-09T07:48:47.524Z,96883.75
2023-02-09T07:51:18.523Z,96883.53
2023-02-09T07:53:47.000Z,96887.72
2023-02-09T07:56:15.784Z,96881.97
2023-02-09T07:58:43.687Z,96884.91
2023-02-09T08:01:19.743Z,96888.16
2023-02-09T08:03:49.482Z,96881.00
2023-02-09T08:06:26.046Z,96881.88
2023-02-09T08:08:58.643Z,96868.50
2023-02-09T08:11:30.899Z,96877.06
2023-02-09T08:14:03.706Z,96868.94
2023-02-09T08:16:32.874Z,96875.34
2023-02-09T08:19:04.647Z,96859.81
2023-02-09T08:21:37.575Z,96868.94
2023-02-09T08:24:07.761Z,96869.38
2023-02-09T08:26:36.904Z,96863.84
2023-02-09T08:29:05.046Z,96855.13
2023-02-09T08:31:32.893Z,96861.97
2023-02-09T08:34:00.967Z,96850.91
2023-02-09T08:36:28.936Z,96852.91
2023-02-09T08:38:58.312Z,96851.59
2023-02-09T08:41:26.525Z,96853.25
2023-02-09T08:43:54.414Z,96846.41
2023-02-09T08:46:22.286Z,96847.38
2023-02-09T08:48:50.197Z,96848.44
2023-02-09T08:51:18.012Z,96848.53
2023-02-09T08:53:52.280Z,96844.41
2023-02-09T08:56:22.913Z,96851.25
2023-02-09T08:58:51.279Z,96848.97
2023-02-09T09:01:19.337Z,96847.66
2023-02-09T09:03:47.194Z,96848.47
2023-02-09T09:06:15.109Z,96845.66
2023-02-09T09:08:43.322Z,96853.47
2023-02-09T09:11:13.232Z,96852.06
2023-02-09T09:13:42.909Z,96845.78
2023-02-09T09:16:18.648Z,96843.59
2023-02-09T09:18:46.653Z,96849.75
2023-02-09T09:21:16.000Z,96845.44
2023-02-09T09:23:44.810Z,96844.00
2023-02-09T09:26:12.624Z,96842.75
2023-02-09T09:28:40.456Z,96838.66
2023-02-09T09:31:11.331Z,96841.34
2023-02-09T09:33:40.034Z,96848.47
2023-02-09T09:36:08.827Z,96836.84
2023-02-09T09:38:38.240Z,96836.31
2023-02-09T09:41:07.805Z,96837.69
2023-02-09T09:43:39.490Z,96840.66
2023-02-09T09:46:16.268Z,96849.06
2023-02-09T09:48:46.911Z,96848.34
2023-02-09T09:51:19.794Z,96846.19
2023-02-09T09:53:52.179Z,96852.06
2023-02-09T09:56:21.411Z,96856.88
2023-02-09T09:58:51.710Z,96849.19
2023-02-09T10:01:23.406Z,96856.00
2023-02-09T10:03:53.510Z,96851.31
2023-02-09T10:06:23.579Z,96856.03
2023-02-09T10:08:56.600Z,96860.78
2023-02-09T10:11:31.315Z,96863.38
2023-02-09T10:13:59.398Z,96860.63
2023-02-09T10:16:30.489Z,96852.50
2023-02-09T10:18:59.753Z,96855.44
2023-02-09T10:21:48.880Z,96852.84
2023-02-09T10:24:22.647Z,96857.16
2023-02-09T10:27:08.745Z,96842.28
2023-02-09T10:29:36.949Z,96839.78
2023-02-09T10:32:14.960Z,96837.94
2023-02-09T10:34:47.759Z,96822.63
2023-02-09T10:37:20.838Z,96819.69
2023-02-09T10:39:59.871Z,96817.59
2023-02-09T10:42:32.127Z,96824.13
2023-02-09T10:45:15.651Z,96818.66
2023-02-09T10:47:59.778Z,96817.53
2023-02-09T10:50:27.577Z,96812.66
2023-02-09T10:52:59.809Z,96822.25
2023-02-09T10:55:34.435Z,96809.94
2023-02-09T10:58:11.149Z,96806.72
2023-02-09T11:00:49.045Z,96802.59
2023-02-09T11:03:25.211Z,96798.84
2023-02-09T11:06:04.632Z,96796.16
2023-02-09T11:08:47.707Z,96793.09
2023-02-09T11:11:27.867Z,96786.13
2023-02-09T11:13:55.788Z,96781.75
2023-02-09T11:16:53.255Z,96778.88
2023-02-09T11:19:36.337Z,96792.53
2023-02-09T11:22:09.202Z,96788.75
2023-02-09T11:24:57.326Z,96796.06
2023-02-09T11:27:36.759Z,96779.38
2023-02-09T11:30:28.112Z,96782.31
2023-02-09T11:33:03.822Z,96778.03
2023-02-09T11:35:46.316Z,96771.09
2023-02-09T11:38:18.031Z,96777.59
2023-02-09T11:40:51.827Z,96777.78
2023-02-09T11:43:25.659Z,96777.63
2023-02-09T11:45:56.302Z,96774.56
2023-02-09T11:48:26.222Z,96775.09
2023-02-09T11:51:02.771Z,96769.25
2023-02-09T11:53:36.702Z,96776.53
2023-02-09T11:56:06.391Z,96769.97
2023-02-09T11:58:47.832Z,96767.19
2023-02-09T12:01:26.506Z,96762.03
2023-02-09T12:04:04.843Z,96779.19
2023-02-09T12:06:40.549Z,96763.06
2023-02-09T12:09:28.633Z,96754.31
2023-02-09T12:12:08.552Z,96751.03
2023-02-09T12:15:07.641Z,96743.16
2023-02-09T12:17:44.150Z,96739.19
2023-02-09T12:20:44.684Z,96732.75
2023-02-09T12:23:20.421Z,96724.03
2023-02-09T12:25:53.588Z,96726.03
2023-02-09T12:28:45.083Z,96724.59
2023-02-09T12:31:16.992Z,96724.28
2023-02-09T12:34:22.506Z,96720.41
2023-02-09T12:37:36.913Z,96717.22
2023-02-09T12:40:25.168Z,96711.22
2023-02-09T12:43:12.007Z,96714.38
2023-02-09T12:45:41.197Z,96712.50
2023-02-09T12:48:17.593Z,96713.22
2023-02-09T12:50:54.677Z,96712.53
2023-02-09T12:53:35.667Z,96713.56
2023-02-09T12:56:27.929Z,96702.81
2023-02-09T12:59:07.108Z,96714.28
2023-02-09T13:02:23.932Z,96708.34
2023-02-09T13:04:58.562Z,96706.56
2023-02-09T13:07:46.628Z,96705.69
2023-02-09T13:10:26.560Z,96707.09
2023-02-09T13:13:00.821Z,96709.97
2023-02-09T13:15:44.463Z,96706.59
2023-02-09T13:18:20.994Z,96704.03
2023-02-09T13:21:14.506Z,96711.06
2023-02-09T13:23:56.004Z,96705.53
2023-02-09T13:26:26.496Z,96710.25
2023-02-09T13:29:19.664Z,96713.44
2023-02-09T13:31:57.318Z,96710.09
2023-02-09T13:34:32.504Z,96715.78
2023-02-09T13:37:11.041Z,96713.19
2023-02-09T13:39:40.929Z,96718.94
2023-02-09T13:42:20.678Z,96712.84
2023-02-09T13:44:52.403Z,96710.91
2023-02-09T13:47:20.276Z,96709.94
2023-02-09T13:50:00.050Z,96720.13
2023-02-09T13:52:33.228Z,96719.88
2023-02-09T13:55:11.261Z,96709.19
2023-02-09T13:57:42.012Z,96725.75
2023-02-09T14:00:22.311Z,96716.69
2023-02-09T14:02:54.428Z,96721.28
2023-02-09T14:05:31.477Z,96719.75
2023-02-09T14:08:00.070Z,96711.00
2023-02-09T14:10:29.989Z,96703.41
2023-02-09T14:13:02.277Z,96699.13
2023-02-09T14:15:55.213Z,96698.19
2023-02-09T14:18:47.773Z,96691.75
2023-02-09T14:21:24.968Z,96693.25
2023-02-09T14:24:17.453Z,96687.78
2023-02-09T14:26:48.744Z,96686.22
2023-02-09T14:29:20.062Z,96687.25
2023-02-09T14:31:50.975Z,96681.69
2023-02-09T14:34:31.575Z,96694.09
2023-02-09T14:37:01.420Z,96698.16
2023-02-09T14:39:31.384Z,96699.00
2023-02-09T14:42:18.141Z,96694.78
2023-02-09T14:44:47.326Z,96697.16
2023-02-09T14:47:38.489Z,96700.88
2023-02-09T14:50:07.849Z,96709.69
2023-02-09T14:52:38.882Z,96726.91
2023-02-09T14:55:15.432Z,96724.81
2023-02-09T14:57:43.206Z,96727.50
2023-02-09T15:00:17.295Z,96728.38
2023-02-09T15:02:49.193Z,96730.84
2023-02-09T15:05:17.888Z,96741.53
2023-02-09T15:07:50.278Z,96731.78
2023-02-09T15:10:27.861Z,96740.50
2023-02-09T15:12:56.733Z,96734.47
2023-02-09T15:15:25.831Z,96741.19
2023-02-09T15:17:55.409Z,96741.09
2023-02-09T15:20:25.469Z,96740.94
2023-02-09T15:22:53.506Z,96747.66
2023-02-09T15:25:21.805Z,96743.75
2023-02-09T15:27:52.477Z,96739.75
2023-02-09T15:30:22.804Z,96744.09
2023-02-09T15:32:50.963Z,96747.69
2023-02-09T15:35:21.956Z,96752.06
2023-02-09T15:37:52.918Z,96755.88
2023-02-09T15:40:45.008Z,96756.97
2023-02-09T15:43:32.757Z,96764.00
2023-02-09T15:46:18.222Z,96763.66
2023-02-09T15:48:46.162Z,96769.06
2023-02-09T15:51:16.283Z,96780.47
2023-02-09T15:53:45.134Z,96773.69
2023-02-09T15:56:16.526Z,96775.75
2023-02-09T15:58:48.178Z,96783.22
2023-02-09T16:01:17.794Z,96785.03
2023-02-09T16:03:45.981Z,96790.00
2023-02-09T16:06:18.501Z,96795.75
2023-02-09T16:08:47.672Z,96792.41
2023-02-09T16:11:20.561Z,96788.28
2023-02-09T16:13:48.647Z,96800.16
2023-02-09T16:16:17.873Z,96809.38
2023-02-09T16:18:46.351Z,96807.69
2023-02-09T16:21:21.118Z,96815.06
2023-02-09T16:23:49.240Z,96806.31
2023-02-09T16:26:19.279Z,96820.63
2023-02-09T16:28:48.170Z,96823.97
2023-02-09T16:31:15.912Z,96823.84
2023-02-09T16:33:43.734Z,96824.88
2023-02-09T16:36:15.672Z,96834.34
2023-02-09T16:38:45.563Z,96831.03
2023-02-09T16:41:35.273Z,96845.56
2023-02-09T16:44:13.302Z,96850.84
2023-02-09T16:46:41.169Z,96850.66
2023-02-09T16:49:20.668Z,96859.16
2023-02-09T16:51:48.452Z,96858.28
2023-02-09T16:54:17.613Z,96863.38
2023-02-09T16:56:54.076Z,96871.81
2023-02-09T16:59:22.613Z,96874.44
2023-02-09T17:01:50.396Z,96878.88
2023-02-09T17:04:18.246Z,96878.56
2023-02-09T17:06:50.502Z,96881.50
2023-02-09T17:09:19.832Z,96889.53
2023-02-09T17:11:47.750Z,96892.56
2023-02-09T17:14:15.532Z,96885.94
2023-02-09T17:16:49.682Z,96898.31
2023-02-09T17:19:19.132Z,96895.53
2023-02-09T17:21:46.942Z,96905.88
2023-02-09T17:24:16.676Z,96905.25
2023-02-09T17:26:46.182Z,96903.09
2023-02-09T17:29:13.976Z,96906.78
2023-02-09T17:31:52.808Z,96908.78
2023-02-09T17:34:26.857Z,96906.81
2023-02-09T17:36:54.691Z,96909.84
2023-02-09T17:39:22.506Z,96906.88
2023-02-09T17:41:51.732Z,96908.22
2023-02-09T17:44:34.822Z,96907.28
2023-02-09T17:47:10.777Z,96916.59
2023-02-09T17:49:38.599Z,96917.13
2023-02-09T17:52:06.715Z,96917.13
2023-02-09T17:54:34.583Z,96923.13
2023-02-09T17:57:03.710Z,96927.84
2023-02-09T17:59:31.457Z,96927.19
2023-02-09T18:01:59.197Z,96928.84
2023-02-09T18:04:28.677Z,96927.50
2023-02-09T18:06:58.027Z,96929.44
2023-02-09T18:09:25.859Z,96929.34
2023-02-09T18:12:00.174Z,96936.00
2023-02-09T18:14:31.306Z,96939.81
2023-02-09T18:16:59.212Z,96934.84
2023-02-09T18:19:27.232Z,96940.53
2023-02-09T18:21:56.782Z,96943.72
2023-02-09T18:24:26.684Z,96954.34
2023-02-09T18:26:54.516Z,96949.56
2023-02-09T18:29:26.200Z,96950.69
2023-02-09T18:31:55.319Z,96946.25
2023-02-09T18:34:23.575Z,96947.69
2023-02-09T18:36:51.363Z,96945.56
2023-02-09T18:39:21.064Z,96945.56
2023-02-09T18:41:54.591Z,96947.75
2023-02-09T18:44:24.506Z,96934.66
2023-02-09T18:46:52.313Z,96940.31
2023-02-09T18:49:21.560Z,96947.63
2023-02-09T18:51:49.405Z,96939.31
2023-02-09T18:54:17.082Z,96952.75
2023-02-09T18:56:45.356Z,96951.13
2023-02-09T18:59:13.046Z,96951.44
2023-02-09T19:01:41.023Z,96955.75
2023-02-09T19:04:08.938Z,96959.59
2023-02-09T19:06:38.661Z,96958.75
2023-02-09T19:09:06.474Z,96962.59
2023-02-09T19:11:34.167Z,96962.09
2023-02-09T19:14:19.649Z,96961.63
2023-02-09T19:16:47.376Z,96967.91
2023-02-09T19:19:16.126Z,96972.03
2023-02-09T19:21:45.207Z,96975.88
2023-02-09T19:24:13.375Z,96965.44
2023-02-09T19:26:41.089Z,96961.44
2023-02-09T19:29:08.809Z,96972.88
2023-02-09T19:31:37.385Z,96974.88
2023-02-09T19:34:05.099Z,96971.56
2023-02-09T19:36:34.970Z,96979.19
2023-02-09T19:39:04.198Z,96972.22
2023-02-09T19:41:32.419Z,96968.41
2023-02-09T19:44:00.745Z,96979.03
2023-02-09T19:46:28.900Z,96976.88
2023-02-09T19:48:58.595Z,96980.84
2023-02-09T19:51:26.705Z,96977.03
2023-02-09T19:53:55.250Z,96976.69
2023-02-09T19:56:25.020Z,96988.50
2023-02-09T19:58:53.152Z,96977.19
2023-02-09T20:01:22.422Z,96979.34
2023-02-09T20:03:52.376Z,96980.00
2023-02-09T20:06:20.886Z,96985.31
2023-02-09T20:08:49.577Z,96974.00
2023-02-09T20:11:20.176Z,96978.97
2023-02-09T20:13:53.220Z,96983.66
2023-02-09T20:16:23.584Z,96982.97
2023-02-09T20:18:52.737Z,96991.41
2023-02-09T20:21:23.411Z,96989.06
2023-02-09T20:23:55.384Z,96986.94
2023-02-09T20:26:26.654Z,96995.38
2023-02-09T20:28:58.208Z,96992.88
2023-02-09T20:31:28.569Z,97000.00
2023-02-09T20:33:58.037Z,96995.38
2023-02-09T20:36:25.968Z,97002.47
2023-02-09T20:38:53.927Z,97006.94
2023-02-09T20:41:22.215Z,97007.44
2023-02-09T20:44:07.808Z,97006.94
2023-02-09T20:46:54.908Z,97009.56
2023-02-09T20:49:24.096Z,97011.03
2023-02-09T20:51:52.597Z,97008.69
2023-02-09T20:54:21.157Z,97017.16
2023-02-09T20:56:50.090Z,97011.97
2023-02-09T20:59:18.403Z,97012.13
2023-02-09T21:01:48.223Z,97018.22
2023-02-09T21:04:16.827Z,97025.66
2023-02-09T21:06:45.277Z,97023.00
2023-02-09T21:09:15.316Z,97032.94
2023-02-09T21:11:43.582Z,97029.44
2023-02-09T21:14:21.936Z,97037.72
2023-02-09T21:17:01.215Z,97037.16
2023-02-09T21:19:29.031Z,97034.66
2023-02-09T21:21:56.721Z,97036.63
2023-02-09T21:24:24.504Z,97042.25
2023-02-09T21:26:52.990Z,97040.72
2023-02-09T21:29:20.788Z,97038.25
2023-02-09T21:31:48.591Z,97035.22
2023-02-09T21:34:18.256Z,97041.66
2023-02-09T21:36:45.954Z,97036.91
2023-02-09T21:39:14.393Z,97046.50
2023-02-09T21:41:59.751Z,97045.53
2023-02-09T21:44:27.520Z,97038.72
2023-02-09T21:46:55.244Z,97041.81
2023-02-09T21:49:24.621Z,97047.81
2023-02-09T21:51:52.479Z,97051.75
2023-02-09T21:54:20.252Z,97048.94
2023-02-09T21:56:48.049Z,97040.81
2023-02-09T21:59:15.780Z,97048.91
2023-02-09T22:01:43.581Z,97050.19
2023-02-09T22:04:12.093Z,97054.66
2023-02-09T22:06:41.886Z,97057.75
2023-02-09T22:09:09.646Z,97057.22
2023-02-09T22:11:37.397Z,97054.91
2023-02-09T22:14:05.282Z,97063.50
2023-02-09T22:16:40.634Z,97063.44
2023-02-09T22:19:08.397Z,97070.03
2023-02-09T22:21:36.152Z,97072.00
2023-02-09T22:24:05.828Z,97067.84
2023-02-09T22:26:33.544Z,97071.31
2023-02-09T22:29:01.662Z,97068.97
2023-02-09T22:31:29.336Z,97074.44
2023-02-09T22:33:58.421Z,97071.09
2023-02-09T22:36:26.175Z,97076.69
2023-02-09T22:38:53.914Z,97074.50
2023-02-09T22:41:24.424Z,97078.06
2023-02-09T22:43:53.372Z,97087.19
2023-02-09T22:46:22.142Z,97083.72
2023-02-09T22:48:53.531Z,97089.16
2023-02-09T22:51:21.940Z,97094.84
2023-02-09T22:53:49.744Z,97090.53
2023-02-09T23:01:16.524Z,97101.19
2023-02-09T23:03:44.253Z,97094.09
2023-02-09T23:06:16.519Z,97094.78
2023-02-09T23:08:45.180Z,97088.16
2023-02-09T23:11:15.165Z,97085.75
2023-02-09T23:13:44.306Z,97091.66
2023-02-09T23:16:16.436Z,97073.13
2023-02-09T23:18:47.831Z,97065.53
2023-02-09T23:21:16.918Z,97063.34
2023-02-09T23:23:45.028Z,97063.31
2023-02-09T23:26:13.863Z,97070.94
2023-02-09T23:28:41.600Z,97064.88
2023-02-09T23:31:12.813Z,97063.94
2023-02-09T23:33:42.246Z,97058.63
2023-02-09T23:36:12.836Z,97058.84
2023-02-09T23:38:41.122Z,97064.16
2023-02-09T23:41:09.173Z,97055.22
2023-02-09T23:43:37.382Z,97061.03
2023-02-09T23:46:08.040Z,97058.88
2023-02-09T23:48:36.232Z,97064.38
2023-02-09T23:51:07.422Z,97066.84
2023-02-09T23:53:36.799Z,97075.00
2023-02-09T23:56:04.994Z,97077.47
2023-02-09T23:58:32.970Z,97075.97
